createdAt,value
2022-07-29T00:01:44.684Z,57.01
2022-07-29T00:04:14.724Z,56.79
2022-07-29T00:06:44.352Z,56.76
2022-07-29T00:09:18.265Z,56.47
2022-07-29T00:11:47.490Z,56.66
2022-07-29T00:14:17.090Z,56.33
2022-07-29T00:16:46.605Z,57.04
2022-07-29T00:19:15.826Z,57.16
2022-07-29T00:21:45.225Z,57.51
2022-07-29T00:24:14.634Z,57.20
2022-07-29T00:26:44.027Z,56.86
2022-07-29T00:32:02.558Z,56.76
2022-07-29T00:35:04.281Z,56.39
2022-07-29T00:37:33.471Z,55.90
2022-07-29T00:40:02.849Z,56.02
2022-07-29T00:42:32.037Z,55.99
2022-07-29T00:45:01.248Z,56.34
2022-07-29T00:47:30.635Z,56.29
2022-07-29T00:50:00.151Z,56.81
2022-07-29T00:52:29.548Z,56.74
2022-07-29T00:54:59.245Z,56.36
2022-07-29T00:57:28.552Z,56.76
2022-07-29T00:59:57.703Z,56.77
2022-07-29T01:02:27.682Z,56.51
2022-07-29T01:04:58.124Z,56.61
2022-07-29T01:07:28.896Z,56.73
2022-07-29T01:09:59.627Z,56.89
2022-07-29T01:12:32.492Z,56.94
2022-07-29T01:15:03.057Z,57.17
2022-07-29T01:17:37.519Z,56.92
2022-07-29T01:20:15.237Z,56.83
2022-07-29T01:23:14.675Z,56.77
2022-07-29T01:26:22.328Z,57.14
2022-07-29T01:29:08.175Z,57.06
2022-07-29T01:31:59.465Z,57.53
2022-07-29T01:34:37.175Z,57.05
2022-07-29T01:37:16.157Z,56.93
2022-07-29T01:39:47.356Z,57.23
2022-07-29T01:42:21.526Z,57.76
2022-07-29T01:44:57.309Z,57.77
2022-07-29T01:47:36.415Z,57.30
2022-07-29T01:50:11.825Z,57.36
2022-07-29T01:52:46.631Z,57.18
2022-07-29T01:55:19.642Z,57.09
2022-07-29T01:57:51.491Z,57.07
2022-07-29T02:00:21.864Z,57.33
2022-07-29T02:02:54.118Z,57.55
2022-07-29T02:05:25.781Z,57.43
2022-07-29T02:07:57.140Z,57.81
2022-07-29T02:10:29.934Z,58.20
2022-07-29T02:13:00.673Z,58.53
2022-07-29T02:15:33.504Z,58.58
2022-07-29T02:18:07.904Z,58.46
2022-07-29T02:20:37.753Z,58.06
2022-07-29T02:23:08.331Z,58.18
2022-07-29T02:25:38.758Z,58.36
2022-07-29T02:28:10.167Z,58.33
2022-07-29T02:30:43.333Z,58.80
2022-07-29T02:33:17.174Z,59.09
2022-07-29T02:35:48.645Z,59.18
2022-07-29T02:38:37.738Z,59.13
2022-07-29T02:41:12.200Z,58.58
2022-07-29T02:43:42.922Z,58.59
2022-07-29T02:46:28.979Z,58.34
2022-07-29T02:49:05.632Z,58.46
2022-07-29T02:51:50.764Z,58.94
2022-07-29T02:54:23.823Z,59.02
2022-07-29T02:56:56.187Z,58.97
2022-07-29T02:59:29.145Z,59.25
2022-07-29T03:02:01.019Z,59.34
2022-07-29T03:04:32.351Z,59.09
2022-07-29T03:07:02.555Z,59.24
2022-07-29T03:09:33.111Z,59.24
2022-07-29T03:12:05.554Z,59.15
2022-07-29T03:14:35.088Z,58.99
2022-07-29T03:17:05.524Z,58.80
2022-07-29T03:19:35.630Z,59.36
2022-07-29T03:22:05.152Z,59.66
2022-07-29T03:24:37.326Z,59.74
2022-07-29T03:27:07.431Z,59.16
2022-07-29T03:29:36.752Z,58.74
2022-07-29T03:32:25.349Z,58.03
2022-07-29T03:35:16.617Z,57.33
2022-07-29T03:38:04.191Z,57.44
2022-07-29T03:40:57.465Z,56.85
2022-07-29T03:43:49.520Z,55.86
2022-07-29T03:46:37.695Z,54.39
2022-07-29T03:49:26.147Z,53.18
2022-07-29T03:52:14.551Z,51.80
2022-07-29T03:55:01.434Z,51.16
2022-07-29T03:57:51.647Z,50.64
2022-07-29T04:00:37.745Z,50.03
2022-07-29T04:03:23.783Z,49.20
2022-07-29T04:06:06.571Z,48.61
2022-07-29T04:08:35.861Z,48.10
2022-07-29T04:11:06.170Z,48.31
2022-07-29T04:13:35.420Z,48.73
2022-07-29T04:16:04.833Z,48.65
2022-07-29T04:18:34.146Z,48.27
2022-07-29T04:21:04.784Z,48.12
2022-07-29T04:23:34.126Z,47.30
2022-07-29T04:26:03.471Z,46.77
2022-07-29T04:28:32.720Z,46.66
2022-07-29T04:31:02.675Z,46.42
2022-07-29T04:33:32.120Z,46.54
2022-07-29T04:36:01.285Z,46.49
2022-07-29T04:38:30.592Z,46.08
2022-07-29T04:40:59.927Z,45.87
2022-07-29T04:43:29.648Z,45.97
2022-07-29T04:46:07.816Z,46.03
2022-07-29T04:48:37.488Z,45.92
2022-07-29T04:51:06.773Z,45.73
2022-07-29T04:53:36.002Z,45.89
2022-07-29T04:56:06.333Z,45.61
2022-07-29T04:58:36.753Z,45.61
2022-07-29T05:01:06.960Z,45.71
2022-07-29T05:03:36.201Z,45.28
2022-07-29T05:06:05.514Z,45.00
2022-07-29T05:08:34.749Z,45.31
2022-07-29T05:11:12.095Z,45.42
2022-07-29T05:13:45.285Z,45.49
2022-07-29T05:16:15.863Z,45.64
2022-07-29T05:18:45.508Z,45.79
2022-07-29T05:21:14.808Z,45.70
2022-07-29T05:23:44.897Z,45.59
2022-07-29T05:26:14.032Z,45.55
2022-07-29T05:28:43.347Z,45.72
2022-07-29T05:31:12.766Z,45.63
2022-07-29T05:33:42.162Z,45.35
2022-07-29T05:36:11.370Z,44.89
2022-07-29T05:38:40.722Z,44.73
2022-07-29T05:41:09.948Z,44.62
2022-07-29T05:43:39.177Z,44.77
2022-07-29T05:46:08.967Z,45.04
2022-07-29T05:48:40.259Z,44.96
2022-07-29T05:51:09.609Z,44.80
2022-07-29T05:53:39.001Z,44.97
2022-07-29T05:56:09.192Z,45.38
2022-07-29T05:58:38.548Z,45.47
2022-07-29T06:01:07.971Z,45.33
2022-07-29T06:03:39.022Z,45.09
2022-07-29T06:06:08.656Z,45.00
2022-07-29T06:08:38.353Z,44.46
2022-07-29T06:11:09.215Z,44.28
2022-07-29T06:13:38.726Z,44.31
2022-07-29T06:16:08.643Z,44.36
2022-07-29T06:18:38.123Z,44.28
2022-07-29T06:21:11.202Z,43.46
2022-07-29T06:23:41.455Z,43.10
2022-07-29T06:26:10.918Z,43.26
2022-07-29T06:28:41.075Z,43.22
2022-07-29T06:31:10.402Z,43.52
2022-07-29T06:33:39.967Z,43.19
2022-07-29T06:36:10.664Z,43.11
2022-07-29T06:38:49.523Z,43.06
2022-07-29T06:41:20.814Z,43.21
2022-07-29T06:43:54.609Z,43.07
2022-07-29T06:46:24.860Z,43.02
2022-07-29T06:48:56.658Z,43.43
2022-07-29T06:51:26.265Z,43.31
2022-07-29T06:53:59.958Z,42.83
2022-07-29T06:56:39.380Z,42.50
2022-07-29T06:59:10.792Z,42.18
2022-07-29T07:01:41.620Z,42.05
2022-07-29T07:04:12.378Z,41.79
2022-07-29T07:06:41.981Z,41.15
2022-07-29T07:09:11.329Z,40.89
2022-07-29T07:11:41.053Z,41.01
2022-07-29T07:14:10.471Z,41.05
2022-07-29T07:16:39.949Z,40.63
2022-07-29T07:19:09.455Z,40.26
2022-07-29T07:21:38.755Z,40.13
2022-07-29T07:24:09.349Z,40.56
2022-07-29T07:26:40.437Z,40.37
2022-07-29T07:29:09.782Z,40.18
2022-07-29T07:31:39.964Z,40.50
2022-07-29T07:34:09.405Z,40.48
2022-07-29T07:36:38.890Z,40.43
2022-07-29T07:39:08.192Z,40.24
2022-07-29T07:41:37.815Z,39.75
2022-07-29T07:44:07.723Z,39.57
2022-07-29T07:46:40.150Z,38.94
2022-07-29T07:49:11.713Z,39.13
2022-07-29T07:51:41.175Z,39.57
2022-07-29T07:54:10.992Z,39.59
2022-07-29T07:56:41.049Z,39.55
2022-07-29T07:59:10.312Z,39.74
2022-07-29T08:01:54.963Z,39.74
2022-07-29T08:04:28.424Z,39.26
2022-07-29T08:06:59.277Z,39.30
2022-07-29T08:09:30.626Z,38.96
2022-07-29T08:12:03.186Z,38.82
2022-07-29T08:14:33.342Z,38.60
2022-07-29T08:17:02.780Z,38.35
2022-07-29T08:19:32.177Z,38.07
2022-07-29T08:22:02.952Z,37.94
2022-07-29T08:24:44.039Z,37.81
2022-07-29T08:27:40.800Z,37.74
2022-07-29T08:30:03.389Z,37.36
2022-07-29T08:32:53.055Z,37.10
2022-07-29T08:35:24.133Z,36.88
2022-07-29T08:37:53.947Z,37.26
2022-07-29T08:40:32.117Z,37.28
2022-07-29T08:43:07.405Z,37.46
2022-07-29T08:45:47.352Z,36.86
2022-07-29T08:48:18.673Z,36.70
2022-07-29T08:50:49.095Z,36.71
2022-07-29T08:53:19.833Z,37.16
2022-07-29T08:55:51.270Z,36.90
2022-07-29T08:58:23.229Z,36.94
2022-07-29T09:00:56.182Z,36.38
2022-07-29T09:03:31.099Z,36.38
2022-07-29T09:06:00.789Z,36.60
2022-07-29T09:08:31.982Z,36.77
2022-07-29T09:11:03.835Z,37.08
2022-07-29T09:13:34.120Z,37.12
2022-07-29T09:16:09.109Z,37.41
2022-07-29T09:18:40.413Z,37.70
2022-07-29T09:21:34.443Z,37.55
2022-07-29T09:24:10.467Z,37.43
2022-07-29T09:26:43.251Z,36.95
2022-07-29T09:29:14.079Z,36.91
2022-07-29T09:31:45.584Z,37.60
2022-07-29T09:34:16.863Z,38.01
2022-07-29T09:36:47.741Z,38.23
2022-07-29T09:39:27.661Z,37.74
2022-07-29T09:41:58.847Z,37.74
2022-07-29T09:44:41.603Z,37.40
2022-07-29T09:47:11.329Z,36.98
2022-07-29T09:49:55.187Z,36.69
2022-07-29T09:52:24.655Z,36.74
2022-07-29T09:54:54.771Z,36.62
2022-07-29T09:57:31.136Z,36.02
2022-07-29T10:00:02.624Z,36.21
2022-07-29T10:02:34.310Z,36.17
2022-07-29T10:05:05.394Z,36.22
2022-07-29T10:07:50.571Z,35.57
2022-07-29T10:10:24.728Z,35.72
2022-07-29T10:13:01.853Z,35.78
2022-07-29T10:15:38.039Z,36.01
2022-07-29T10:18:09.430Z,35.55
2022-07-29T10:20:39.207Z,35.55
2022-07-29T10:23:10.238Z,35.71
2022-07-29T10:25:39.529Z,35.87
2022-07-29T10:28:13.195Z,36.02
2022-07-29T10:30:46.900Z,35.76
2022-07-29T10:33:37.644Z,35.45
2022-07-29T10:36:24.209Z,35.85
2022-07-29T10:39:03.304Z,35.97
2022-07-29T10:41:57.886Z,36.14
2022-07-29T10:44:28.780Z,36.17
2022-07-29T10:46:59.188Z,36.40
2022-07-29T10:49:30.955Z,36.49
2022-07-29T10:52:06.697Z,36.66
2022-07-29T10:54:46.979Z,36.47
2022-07-29T10:57:53.751Z,36.38
2022-07-29T11:00:32.936Z,36.38
2022-07-29T11:03:04.534Z,36.49
2022-07-29T11:05:59.738Z,35.81
2022-07-29T11:08:31.563Z,36.00
2022-07-29T11:11:37.392Z,36.31
2022-07-29T11:14:10.464Z,36.04
2022-07-29T11:17:06.014Z,35.79
2022-07-29T11:19:37.026Z,36.17
2022-07-29T11:22:12.117Z,36.09
2022-07-29T11:24:50.145Z,35.66
2022-07-29T11:27:22.913Z,35.55
2022-07-29T11:29:58.680Z,35.47
2022-07-29T11:32:39.603Z,35.04
2022-07-29T11:35:19.234Z,34.96
2022-07-29T11:38:08.884Z,35.30
2022-07-29T11:40:42.632Z,35.27
2022-07-29T11:43:32.162Z,34.80
2022-07-29T11:46:04.898Z,33.74
2022-07-29T11:48:34.788Z,34.04
2022-07-29T11:51:12.150Z,34.36
2022-07-29T11:53:48.293Z,35.09
2022-07-29T11:56:25.560Z,35.10
2022-07-29T11:59:05.992Z,35.23
2022-07-29T12:01:39.486Z,35.68
2022-07-29T12:04:09.541Z,35.41
2022-07-29T12:06:41.028Z,35.47
2022-07-29T12:09:14.664Z,35.39
2022-07-29T12:11:47.409Z,35.20
2022-07-29T12:14:31.574Z,35.03
2022-07-29T12:17:02.077Z,34.98
2022-07-29T12:19:43.152Z,34.83
2022-07-29T12:22:14.324Z,34.91
2022-07-29T12:24:47.194Z,35.14
2022-07-29T12:27:29.561Z,35.09
2022-07-29T12:30:03.721Z,35.19
2022-07-29T12:32:37.906Z,34.93
2022-07-29T12:35:06.970Z,34.88
2022-07-29T12:37:41.018Z,35.19
2022-07-29T12:40:17.376Z,35.27
2022-07-29T12:43:10.673Z,35.14
2022-07-29T12:45:40.919Z,35.32
2022-07-29T12:48:10.866Z,35.11
2022-07-29T12:50:55.456Z,35.20
2022-07-29T12:53:25.359Z,35.09
2022-07-29T12:55:56.707Z,35.16
2022-07-29T12:58:50.996Z,35.07
2022-07-29T13:01:21.965Z,35.41
2022-07-29T13:03:57.583Z,35.41
2022-07-29T13:06:39.490Z,35.38
2022-07-29T13:09:14.112Z,35.42
2022-07-29T13:11:48.405Z,34.68
2022-07-29T13:14:34.583Z,34.88
2022-07-29T13:17:09.744Z,34.91
2022-07-29T13:19:41.728Z,35.21
2022-07-29T13:22:11.609Z,35.27
2022-07-29T13:24:56.152Z,35.35
2022-07-29T13:27:25.143Z,35.18
2022-07-29T13:29:57.285Z,35.26
2022-07-29T13:32:28.715Z,35.38
2022-07-29T13:34:59.397Z,35.29
2022-07-29T13:37:30.363Z,35.12
2022-07-29T13:40:01.074Z,35.56
2022-07-29T13:42:30.548Z,35.77
2022-07-29T13:44:59.776Z,35.58
2022-07-29T13:47:32.639Z,35.71
2022-07-29T13:50:02.633Z,35.75
2022-07-29T13:52:33.167Z,35.56
2022-07-29T13:55:03.081Z,35.42
2022-07-29T13:57:32.718Z,35.49
2022-07-29T14:00:02.179Z,35.72
2022-07-29T14:02:31.562Z,35.72
2022-07-29T14:05:06.194Z,35.85
2022-07-29T14:07:37.530Z,35.89
2022-07-29T14:10:08.769Z,36.08
2022-07-29T14:12:38.198Z,35.85
2022-07-29T14:15:09.633Z,36.08
2022-07-29T14:17:38.890Z,35.95
2022-07-29T14:20:11.544Z,35.74
2022-07-29T14:22:42.542Z,35.69
2022-07-29T14:25:14.853Z,35.84
2022-07-29T14:27:44.922Z,35.79
2022-07-29T14:30:15.164Z,35.84
2022-07-29T14:32:44.491Z,35.50
2022-07-29T14:35:13.750Z,35.81
2022-07-29T14:37:43.055Z,35.80
2022-07-29T14:40:13.731Z,35.79
2022-07-29T14:42:43.070Z,35.51
2022-07-29T14:45:12.611Z,35.98
2022-07-29T14:47:42.115Z,36.09
2022-07-29T14:50:14.591Z,36.29
2022-07-29T14:52:44.340Z,36.19
2022-07-29T14:55:16.685Z,35.81
2022-07-29T14:57:50.686Z,35.98
2022-07-29T15:00:21.456Z,36.20
2022-07-29T15:03:01.803Z,35.91
2022-07-29T15:05:32.723Z,35.31
2022-07-29T15:08:02.157Z,35.58
2022-07-29T15:10:31.324Z,35.97
2022-07-29T15:13:00.683Z,36.05
2022-07-29T15:15:33.987Z,36.17
2022-07-29T15:18:30.266Z,36.02
2022-07-29T15:21:26.131Z,35.80
2022-07-29T15:24:25.654Z,35.79
2022-07-29T15:27:22.694Z,35.64
2022-07-29T15:30:27.891Z,35.51
2022-07-29T15:33:27.142Z,35.56
2022-07-29T15:36:50.806Z,35.80
2022-07-29T15:39:37.065Z,35.65
2022-07-29T15:42:33.124Z,35.71
2022-07-29T15:45:32.555Z,35.89
2022-07-29T15:48:29.172Z,36.13
2022-07-29T15:51:26.574Z,36.39
2022-07-29T15:54:20.889Z,36.59
2022-07-29T15:57:16.166Z,36.32
2022-07-29T16:00:15.394Z,36.04
2022-07-29T16:03:07.122Z,36.22
2022-07-29T16:05:58.977Z,36.32
2022-07-29T16:09:07.861Z,36.09
2022-07-29T16:12:01.405Z,36.22
2022-07-29T16:14:57.894Z,36.54
2022-07-29T16:17:50.230Z,36.44
2022-07-29T16:20:39.099Z,36.69
2022-07-29T16:23:28.380Z,36.51
2022-07-29T16:26:00.067Z,36.26
2022-07-29T16:28:31.028Z,36.65
2022-07-29T16:31:01.901Z,36.82
2022-07-29T16:33:55.067Z,37.29
2022-07-29T16:36:22.555Z,37.53
2022-07-29T16:38:53.237Z,37.33
2022-07-29T16:41:22.701Z,37.08
2022-07-29T16:43:53.241Z,37.36
2022-07-29T16:46:23.335Z,37.52
2022-07-29T16:48:55.896Z,37.63
2022-07-29T16:51:27.061Z,37.92
2022-07-29T16:53:57.412Z,37.99
2022-07-29T16:56:27.016Z,37.95
2022-07-29T16:59:00.327Z,37.96
2022-07-29T17:01:30.024Z,37.84
2022-07-29T17:04:08.503Z,37.89
2022-07-29T17:06:40.351Z,37.88
2022-07-29T17:09:11.552Z,37.83
2022-07-29T17:11:53.544Z,37.85
2022-07-29T17:14:26.226Z,38.10
2022-07-29T17:17:01.337Z,38.29
2022-07-29T17:19:34.951Z,38.11
2022-07-29T17:22:18.744Z,38.24
2022-07-29T17:25:11.962Z,39.20
2022-07-29T17:28:11.330Z,39.85
2022-07-29T17:31:00.198Z,39.98
2022-07-29T17:33:59.632Z,40.66
2022-07-29T17:36:49.997Z,40.99
2022-07-29T17:39:46.951Z,41.13
2022-07-29T17:42:38.061Z,41.14
2022-07-29T17:45:48.787Z,41.15
2022-07-29T17:48:35.412Z,41.25
2022-07-29T17:51:25.739Z,41.26
2022-07-29T17:54:18.754Z,41.37
2022-07-29T17:56:49.701Z,41.31
2022-07-29T17:59:19.332Z,41.36
2022-07-29T18:01:48.824Z,42.01
2022-07-29T18:04:20.846Z,41.84
2022-07-29T18:06:50.072Z,42.16
2022-07-29T18:09:19.576Z,42.26
2022-07-29T18:11:49.065Z,42.56
2022-07-29T18:14:18.452Z,42.81
2022-07-29T18:16:47.784Z,42.60
2022-07-29T18:19:17.112Z,42.75
2022-07-29T18:21:53.986Z,42.90
2022-07-29T18:24:25.048Z,43.09
2022-07-29T18:26:54.459Z,43.35
2022-07-29T18:29:23.859Z,43.38
2022-07-29T18:31:53.334Z,43.54
2022-07-29T18:34:22.679Z,43.58
2022-07-29T18:36:52.012Z,43.54
2022-07-29T18:39:22.060Z,43.69
2022-07-29T18:41:53.113Z,43.82
2022-07-29T18:44:23.002Z,44.08
2022-07-29T18:46:52.978Z,44.21
2022-07-29T18:49:22.400Z,44.43
2022-07-29T18:51:52.595Z,44.56
2022-07-29T18:54:21.920Z,44.62
2022-07-29T18:56:51.247Z,44.76
2022-07-29T18:59:21.208Z,45.01
2022-07-29T19:01:51.016Z,45.18
2022-07-29T19:04:20.413Z,44.66
2022-07-29T19:06:49.712Z,44.62
2022-07-29T19:09:19.081Z,44.63
2022-07-29T19:11:53.044Z,44.73
2022-07-29T19:14:25.410Z,44.67
2022-07-29T19:16:55.238Z,44.56
2022-07-29T19:19:25.129Z,44.75
2022-07-29T19:21:54.721Z,44.97
2022-07-29T19:24:23.870Z,45.19
2022-07-29T19:26:53.244Z,45.40
2022-07-29T19:29:23.387Z,45.30
2022-07-29T19:31:52.800Z,45.60
2022-07-29T19:34:22.022Z,45.70
2022-07-29T19:36:51.406Z,45.63
2022-07-29T19:39:34.717Z,45.34
2022-07-29T19:42:05.283Z,45.45
2022-07-29T19:44:34.572Z,45.58
2022-07-29T19:47:03.922Z,45.66
2022-07-29T19:49:36.966Z,45.84
2022-07-29T19:52:07.694Z,45.88
2022-07-29T19:54:36.946Z,45.92
2022-07-29T19:57:06.276Z,45.84
2022-07-29T19:59:35.935Z,45.81
2022-07-29T20:02:05.638Z,45.68
2022-07-29T20:04:35.042Z,46.02
2022-07-29T20:07:04.449Z,46.16
2022-07-29T20:09:34.557Z,46.00
2022-07-29T20:12:06.260Z,46.22
2022-07-29T20:14:35.599Z,46.22
2022-07-29T20:17:08.273Z,46.51
2022-07-29T20:19:37.628Z,46.50
2022-07-29T20:22:07.344Z,46.56
2022-07-29T20:24:36.951Z,46.75
2022-07-29T20:27:06.368Z,46.64
2022-07-29T20:29:46.903Z,46.72
2022-07-29T20:32:16.389Z,47.07
2022-07-29T20:34:45.863Z,47.10
2022-07-29T20:37:16.464Z,47.13
2022-07-29T20:39:47.632Z,47.36
2022-07-29T20:42:17.443Z,47.01
2022-07-29T20:44:46.849Z,47.05
2022-07-29T20:47:16.454Z,47.19
2022-07-29T20:49:45.887Z,47.18
2022-07-29T20:52:15.397Z,47.22
2022-07-29T20:54:44.870Z,46.98
2022-07-29T20:57:14.309Z,47.17
2022-07-29T20:59:45.880Z,47.30
2022-07-29T21:02:15.384Z,47.45
2022-07-29T21:04:45.071Z,47.17
2022-07-29T21:07:14.482Z,47.16
2022-07-29T21:09:43.796Z,47.10
2022-07-29T21:12:14.854Z,47.12
2022-07-29T21:14:51.456Z,46.84
2022-07-29T21:17:22.757Z,46.54
2022-07-29T21:19:53.381Z,46.46
2022-07-29T21:22:22.806Z,46.85
2022-07-29T21:25:25.753Z,46.78
2022-07-29T21:28:44.470Z,46.63
2022-07-29T21:31:51.700Z,46.56
2022-07-29T21:34:59.116Z,47.95
2022-07-29T21:37:28.660Z,48.74
2022-07-29T21:40:45.276Z,49.59
2022-07-29T21:43:51.079Z,50.36
2022-07-29T21:46:21.144Z,50.70
2022-07-29T21:48:53.900Z,51.09
2022-07-29T21:51:23.900Z,51.80
2022-07-29T21:53:53.335Z,52.59
2022-07-29T21:56:43.298Z,52.55
2022-07-29T21:59:56.010Z,52.46
2022-07-29T22:02:54.328Z,51.74
2022-07-29T22:05:23.818Z,51.21
2022-07-29T22:07:55.924Z,50.90
2022-07-29T22:10:28.206Z,51.21
2022-07-29T22:12:59.116Z,53.35
2022-07-29T22:15:28.590Z,54.90
2022-07-29T22:17:58.308Z,55.62
2022-07-29T22:20:28.202Z,55.81
2022-07-29T22:22:57.645Z,56.12
2022-07-29T22:25:26.931Z,56.06
2022-07-29T22:27:56.123Z,56.10
2022-07-29T22:30:25.500Z,55.86
2022-07-29T22:32:54.855Z,55.94
2022-07-29T22:35:24.211Z,55.97
2022-07-29T22:37:53.971Z,55.58
2022-07-29T22:40:23.668Z,55.14
2022-07-29T22:43:00.068Z,55.09
2022-07-29T22:45:29.447Z,54.58
2022-07-29T22:47:59.483Z,53.95
2022-07-29T22:50:28.818Z,53.84
2022-07-29T22:52:58.386Z,53.91
2022-07-29T22:55:28.562Z,54.00
2022-07-29T22:57:58.577Z,54.11
2022-07-29T23:00:27.955Z,53.99
2022-07-29T23:02:57.213Z,53.76
2022-07-29T23:05:27.761Z,53.07
2022-07-29T23:07:57.474Z,52.52
2022-07-29T23:10:26.999Z,52.52
2022-07-29T23:12:56.257Z,52.10
2022-07-29T23:15:27.485Z,51.88
2022-07-29T23:17:57.051Z,51.65
2022-07-29T23:20:26.707Z,51.32
2022-07-29T23:22:56.054Z,51.42
2022-07-29T23:25:25.286Z,51.32
2022-07-29T23:27:54.816Z,51.47
2022-07-29T23:30:24.411Z,50.95
2022-07-29T23:32:54.152Z,50.76
2022-07-29T23:35:24.603Z,50.62
2022-07-29T23:37:53.840Z,50.68
2022-07-29T23:40:23.601Z,50.41
2022-07-29T23:42:52.965Z,50.29
2022-07-29T23:45:22.369Z,50.55
2022-07-29T23:48:11.938Z,50.72
2022-07-29T23:50:41.960Z,50.60
2022-07-29T23:53:12.101Z,50.49
2022-07-29T23:55:42.517Z,50.38
2022-07-29T23:58:12.342Z,50.04
